Terminal Aerodrome Forecast
Issued by NWS

Home | Current Version | Previous Version | Text Only | Print | Product List | Glossary On
Versions: 1 2 3 4 5 6 7 8 9 10 11 12 13 14 15 16 17 18 19 20 21 22 23 24 25 26 27 28 29
000
FTUS43 KICT 181740
TAFRSL
TAF
KRSL 181740Z 1818/1918 VRB04KT P6SM -RA VCTS SCT009 SCT015 OVC080CB
     FM182100 03007KT P6SM VCTS SCT015 BKN030CB
     FM190000 33008KT P6SM VCTS SCT015 BKN030CB
     FM190200 34010KT P6SM SCT015 BKN025=

USA.gov is the U.S. government's official web portal to all federal, state and local government web resources and services.